RYR1AC EBCI-LIMC
Flight info
| Callsign | RYR1AC |
|---|---|
| Flight time | 1h 0m |
| Altitude | 35000 |
| Route | RITAX M624 DIK N852 GTQ/N0345F130 R7 LUPEN Y711 NATOR N850 TRA/N0449F350 N850 ODINA DCT RIXUV |
| Aircraft | B38M/M-SDE1FGHILORVWXY/HB1 |
Departure
| Time | 2026-05-08 17:13 |
|---|---|
| Airport | Brussels South Charleroi Airport (EBCI) |
Arrival
| Time | 2026-05-08 18:13 |
|---|---|
| Airport | Milan Malpensa International Airport (LIMC) |
| Time | Latitude | Longitude | Altitude | Speed | Heading |
|---|---|---|---|---|---|
| 2026-05-08 16:55 | 50.46869 | 4.47099 | 584 ft | 0 kts | 335° |
| 2026-05-08 17:07 | 50.46858 | 4.47107 | 584 ft | 4 kts | 328° |
| 2026-05-08 17:07 | 50.46838 | 4.47134 | 584 ft | 4 kts | 299° |
| 2026-05-08 17:08 | 50.46832 | 4.47170 | 584 ft | 5 kts | 253° |
| 2026-05-08 17:08 | 50.46834 | 4.47180 | 585 ft | 3 kts | 245° |
| 2026-05-08 17:09 | 50.46833 | 4.47177 | 585 ft | 2 kts | 245° |
| 2026-05-08 17:10 | 50.46809 | 4.47096 | 585 ft | 15 kts | 244° |
| 2026-05-08 17:10 | 50.46748 | 4.46889 | 585 ft | 26 kts | 245° |
| 2026-05-08 17:10 | 50.46672 | 4.46629 | 587 ft | 25 kts | 245° |
| 2026-05-08 17:10 | 50.46567 | 4.46558 | 590 ft | 19 kts | 176° |
| 2026-05-08 17:11 | 50.46476 | 4.46355 | 588 ft | 30 kts | 245° |
| 2026-05-08 17:11 | 50.46382 | 4.46031 | 593 ft | 33 kts | 245° |
| 2026-05-08 17:11 | 50.46292 | 4.45720 | 596 ft | 31 kts | 244° |
| 2026-05-08 17:11 | 50.46197 | 4.45395 | 597 ft | 36 kts | 246° |
| 2026-05-08 17:12 | 50.46091 | 4.45028 | 595 ft | 37 kts | 245° |
| 2026-05-08 17:12 | 50.45991 | 4.44780 | 595 ft | 21 kts | 196° |
| 2026-05-08 17:12 | 50.45878 | 4.44874 | 595 ft | 22 kts | 98° |
| 2026-05-08 17:12 | 50.45978 | 4.45262 | 589 ft | 68 kts | 65° |
| 2026-05-08 17:13 | 50.46264 | 4.46242 | 588 ft | 127 kts | 65° |
| 2026-05-08 17:13 | 50.46684 | 4.47700 | 794 ft | 155 kts | 65° |
| 2026-05-08 17:13 | 50.47162 | 4.49226 | 1439 ft | 159 kts | 53° |
| 2026-05-08 17:13 | 50.48080 | 4.50185 | 2058 ft | 163 kts | 20° |
| 2026-05-08 17:14 | 50.49023 | 4.51099 | 2655 ft | 165 kts | 55° |
| 2026-05-08 17:14 | 50.49661 | 4.52541 | 3342 ft | 161 kts | 56° |
| 2026-05-08 17:14 | 50.50346 | 4.53983 | 3912 ft | 167 kts | 54° |
| 2026-05-08 17:14 | 50.51105 | 4.55553 | 4163 ft | 194 kts | 54° |
| 2026-05-08 17:15 | 50.51962 | 4.57328 | 4395 ft | 214 kts | 54° |
| 2026-05-08 17:15 | 50.52919 | 4.59297 | 4580 ft | 238 kts | 53° |
| 2026-05-08 17:15 | 50.53985 | 4.61458 | 4895 ft | 258 kts | 53° |
| 2026-05-08 17:15 | 50.54908 | 4.63907 | 5472 ft | 264 kts | 76° |
| 2026-05-08 17:16 | 50.54852 | 4.66771 | 6132 ft | 267 kts | 112° |
| 2026-05-08 17:16 | 50.53917 | 4.69279 | 6878 ft | 270 kts | 124° |
| 2026-05-08 17:16 | 50.52878 | 4.71772 | 7600 ft | 275 kts | 124° |
| 2026-05-08 17:16 | 50.51822 | 4.74316 | 8329 ft | 280 kts | 125° |
| 2026-05-08 17:17 | 50.50743 | 4.76886 | 9080 ft | 284 kts | 125° |
| 2026-05-08 17:17 | 50.49657 | 4.79508 | 9811 ft | 289 kts | 124° |
| 2026-05-08 17:17 | 50.48563 | 4.82196 | 10473 ft | 297 kts | 124° |
| 2026-05-08 17:17 | 50.47403 | 4.85042 | 10668 ft | 322 kts | 124° |
| 2026-05-08 17:18 | 50.46149 | 4.88115 | 10928 ft | 342 kts | 124° |
| 2026-05-08 17:18 | 50.44851 | 4.91296 | 11534 ft | 349 kts | 124° |
| 2026-05-08 17:18 | 50.43533 | 4.94528 | 12294 ft | 352 kts | 124° |
| 2026-05-08 17:18 | 50.42226 | 4.97731 | 13105 ft | 354 kts | 124° |
| 2026-05-08 17:19 | 50.40890 | 5.00997 | 13923 ft | 357 kts | 123° |
| 2026-05-08 17:19 | 50.39539 | 5.04295 | 14632 ft | 361 kts | 123° |
| 2026-05-08 17:19 | 50.38172 | 5.07632 | 15297 ft | 367 kts | 123° |
| 2026-05-08 17:19 | 50.36781 | 5.11028 | 15963 ft | 373 kts | 124° |
| 2026-05-08 17:20 | 50.35365 | 5.14474 | 16656 ft | 378 kts | 124° |
| 2026-05-08 17:20 | 50.33936 | 5.17949 | 17382 ft | 382 kts | 124° |
| 2026-05-08 17:20 | 50.32488 | 5.21465 | 18095 ft | 387 kts | 124° |
| 2026-05-08 17:20 | 50.31020 | 5.25023 | 18719 ft | 391 kts | 124° |
| 2026-05-08 17:21 | 50.29538 | 5.28612 | 19339 ft | 394 kts | 124° |
| 2026-05-08 17:21 | 50.28041 | 5.32230 | 19978 ft | 397 kts | 124° |
| 2026-05-08 17:21 | 50.26530 | 5.35874 | 20608 ft | 400 kts | 124° |
| 2026-05-08 17:21 | 50.25008 | 5.39541 | 21222 ft | 404 kts | 124° |
| 2026-05-08 17:22 | 50.23471 | 5.43238 | 21817 ft | 407 kts | 124° |
| 2026-05-08 17:22 | 50.21940 | 5.46919 | 22413 ft | 410 kts | 124° |
| 2026-05-08 17:22 | 50.20379 | 5.50667 | 22992 ft | 414 kts | 124° |
| 2026-05-08 17:22 | 50.18798 | 5.54461 | 23549 ft | 417 kts | 124° |
| 2026-05-08 17:23 | 50.17209 | 5.58267 | 24036 ft | 420 kts | 124° |
| 2026-05-08 17:23 | 50.15608 | 5.62096 | 24512 ft | 423 kts | 124° |
| 2026-05-08 17:23 | 50.13992 | 5.65956 | 24968 ft | 426 kts | 124° |
| 2026-05-08 17:23 | 50.12365 | 5.69839 | 25430 ft | 429 kts | 124° |
| 2026-05-08 17:24 | 50.10730 | 5.73736 | 25871 ft | 431 kts | 124° |
| 2026-05-08 17:24 | 50.09078 | 5.77663 | 26296 ft | 434 kts | 124° |
| 2026-05-08 17:24 | 50.07313 | 5.81490 | 26704 ft | 437 kts | 131° |
| 2026-05-08 17:24 | 50.05178 | 5.84872 | 27118 ft | 439 kts | 137° |
| 2026-05-08 17:25 | 50.02960 | 5.88079 | 27540 ft | 441 kts | 138° |
| 2026-05-08 17:25 | 50.00709 | 5.91341 | 27964 ft | 443 kts | 137° |
| 2026-05-08 17:25 | 49.98461 | 5.94661 | 28363 ft | 445 kts | 137° |
| 2026-05-08 17:25 | 49.96220 | 5.98001 | 28788 ft | 447 kts | 137° |
| 2026-05-08 17:26 | 49.93971 | 6.01352 | 29158 ft | 450 kts | 137° |
| 2026-05-08 17:26 | 49.91703 | 6.04717 | 29501 ft | 452 kts | 137° |
| 2026-05-08 17:26 | 49.89416 | 6.08099 | 29843 ft | 455 kts | 137° |
| 2026-05-08 17:26 | 49.87066 | 6.11415 | 30169 ft | 457 kts | 143° |
| 2026-05-08 17:27 | 49.84446 | 6.14184 | 30440 ft | 458 kts | 152° |
| 2026-05-08 17:27 | 49.81558 | 6.16299 | 30715 ft | 459 kts | 158° |
| 2026-05-08 17:27 | 49.78615 | 6.18223 | 31031 ft | 459 kts | 159° |
| 2026-05-08 17:27 | 49.75710 | 6.20118 | 31420 ft | 458 kts | 159° |
| 2026-05-08 17:28 | 49.72779 | 6.22059 | 31767 ft | 459 kts | 158° |
| 2026-05-08 17:28 | 49.69845 | 6.24032 | 32051 ft | 460 kts | 158° |
| 2026-05-08 17:28 | 49.66905 | 6.26026 | 32351 ft | 461 kts | 158° |
| 2026-05-08 17:28 | 49.63963 | 6.28017 | 32698 ft | 461 kts | 158° |
| 2026-05-08 17:29 | 49.61018 | 6.29975 | 33054 ft | 461 kts | 159° |
| 2026-05-08 17:29 | 49.58060 | 6.31892 | 33452 ft | 460 kts | 159° |
| 2026-05-08 17:29 | 49.55113 | 6.33787 | 33789 ft | 459 kts | 161° |
| 2026-05-08 17:29 | 49.52138 | 6.35627 | 34008 ft | 462 kts | 160° |
| 2026-05-08 17:30 | 49.49171 | 6.37563 | 34238 ft | 464 kts | 160° |
| 2026-05-08 17:30 | 49.46198 | 6.39517 | 34532 ft | 463 kts | 159° |
| 2026-05-08 17:30 | 49.43268 | 6.41578 | 34864 ft | 463 kts | 158° |
| 2026-05-08 17:30 | 49.40360 | 6.43689 | 35132 ft | 463 kts | 157° |
| 2026-05-08 17:31 | 49.37454 | 6.45818 | 35370 ft | 464 kts | 157° |
| 2026-05-08 17:31 | 49.34535 | 6.47942 | 35611 ft | 464 kts | 158° |
| 2026-05-08 17:31 | 49.31582 | 6.49926 | 35860 ft | 464 kts | 160° |
| 2026-05-08 17:31 | 49.28606 | 6.51853 | 36086 ft | 465 kts | 160° |
| 2026-05-08 17:32 | 49.26633 | 6.53134 | 36260 ft | 464 kts | 160° |
| 2026-05-08 17:32 | 49.23667 | 6.55082 | 36541 ft | 464 kts | 159° |
| 2026-05-08 17:32 | 49.20713 | 6.57044 | 36801 ft | 464 kts | 159° |
| 2026-05-08 17:32 | 49.16790 | 6.59645 | 37111 ft | 464 kts | 159° |
| 2026-05-08 17:33 | 49.14789 | 6.60965 | 37276 ft | 464 kts | 159° |
| 2026-05-08 17:33 | 49.11826 | 6.62916 | 37545 ft | 463 kts | 159° |
| 2026-05-08 17:33 | 49.08862 | 6.64866 | 37764 ft | 463 kts | 160° |
| 2026-05-08 17:33 | 49.05904 | 6.66809 | 37979 ft | 464 kts | 160° |
| 2026-05-08 17:34 | 49.02941 | 6.68754 | 38215 ft | 464 kts | 159° |
| 2026-05-08 17:34 | 49.00108 | 6.71002 | 38445 ft | 467 kts | 149° |
| 2026-05-08 17:34 | 48.97498 | 6.73963 | 38673 ft | 469 kts | 141° |
| 2026-05-08 17:34 | 48.95204 | 6.77505 | 38837 ft | 472 kts | 131° |
| 2026-05-08 17:35 | 48.93125 | 6.81375 | 38992 ft | 473 kts | 130° |
| 2026-05-08 17:35 | 48.91062 | 6.85293 | 39034 ft | 476 kts | 130° |
| 2026-05-08 17:35 | 48.86889 | 6.93092 | 39023 ft | 474 kts | 131° |
| 2026-05-08 17:36 | 48.82668 | 7.00774 | 39034 ft | 471 kts | 132° |
| 2026-05-08 17:36 | 48.78438 | 7.08357 | 39040 ft | 469 kts | 132° |
| 2026-05-08 17:37 | 48.74235 | 7.15803 | 39041 ft | 467 kts | 133° |
| 2026-05-08 17:37 | 48.69983 | 7.23248 | 39038 ft | 467 kts | 133° |
| 2026-05-08 17:38 | 48.65730 | 7.30687 | 39038 ft | 467 kts | 133° |
| 2026-05-08 17:38 | 48.61460 | 7.38142 | 39041 ft | 468 kts | 133° |
| 2026-05-08 17:39 | 48.57190 | 7.45583 | 39034 ft | 469 kts | 133° |
| 2026-05-08 17:39 | 48.52896 | 7.53045 | 39021 ft | 470 kts | 133° |
| 2026-05-08 17:40 | 48.48827 | 7.60703 | 39020 ft | 473 kts | 125° |
| 2026-05-08 17:40 | 48.45325 | 7.69124 | 39021 ft | 475 kts | 124° |
| 2026-05-08 17:41 | 48.41690 | 7.77434 | 39017 ft | 475 kts | 127° |
| 2026-05-08 17:41 | 48.37846 | 7.85532 | 39014 ft | 475 kts | 127° |
| 2026-05-08 17:42 | 48.34094 | 7.93727 | 39022 ft | 476 kts | 125° |
| 2026-05-08 17:42 | 48.30483 | 8.02075 | 39025 ft | 476 kts | 125° |
| 2026-05-08 17:43 | 48.26884 | 8.10326 | 39022 ft | 475 kts | 125° |
| 2026-05-08 17:43 | 48.23213 | 8.18586 | 39023 ft | 475 kts | 126° |
| 2026-05-08 17:44 | 48.19435 | 8.26718 | 39018 ft | 473 kts | 131° |
| 2026-05-08 17:44 | 48.17079 | 8.30109 | 39026 ft | 467 kts | 148° |
| 2026-05-08 17:44 | 48.14274 | 8.32462 | 39026 ft | 461 kts | 161° |
| 2026-05-08 17:45 | 48.11216 | 8.33759 | 39025 ft | 454 kts | 174° |
| 2026-05-08 17:45 | 48.08095 | 8.34476 | 39034 ft | 454 kts | 175° |
| 2026-05-08 17:45 | 48.01877 | 8.35829 | 39022 ft | 455 kts | 174° |
| 2026-05-08 17:46 | 47.95622 | 8.37302 | 39022 ft | 455 kts | 174° |
| 2026-05-08 17:46 | 47.89360 | 8.38833 | 39010 ft | 456 kts | 174° |
| 2026-05-08 17:47 | 47.83084 | 8.40353 | 39023 ft | 457 kts | 174° |
| 2026-05-08 17:47 | 47.77862 | 8.41595 | 39021 ft | 457 kts | 174° |
| 2026-05-08 17:48 | 47.70503 | 8.43343 | 39019 ft | 458 kts | 174° |
| 2026-05-08 17:48 | 47.64186 | 8.44550 | 38997 ft | 457 kts | 178° |
| 2026-05-08 17:49 | 47.57890 | 8.45404 | 38995 ft | 457 kts | 178° |
| 2026-05-08 17:49 | 47.51561 | 8.46272 | 38993 ft | 457 kts | 178° |
| 2026-05-08 17:50 | 47.45231 | 8.47189 | 38986 ft | 457 kts | 178° |
| 2026-05-08 17:50 | 47.38909 | 8.48117 | 38995 ft | 456 kts | 178° |
| 2026-05-08 17:51 | 47.32597 | 8.49039 | 38999 ft | 456 kts | 178° |
| 2026-05-08 17:51 | 47.26268 | 8.49960 | 38939 ft | 459 kts | 178° |
| 2026-05-08 17:52 | 47.23074 | 8.50423 | 38688 ft | 461 kts | 178° |
| 2026-05-08 17:52 | 47.19887 | 8.50887 | 38426 ft | 458 kts | 178° |
| 2026-05-08 17:52 | 47.13570 | 8.51804 | 37509 ft | 454 kts | 179° |
| 2026-05-08 17:53 | 47.10434 | 8.52256 | 36961 ft | 453 kts | 179° |
| 2026-05-08 17:53 | 47.07299 | 8.52709 | 36302 ft | 455 kts | 179° |
| 2026-05-08 17:53 | 47.04146 | 8.53164 | 35726 ft | 454 kts | 180° |
| 2026-05-08 17:53 | 47.00997 | 8.53618 | 35078 ft | 455 kts | 180° |
| 2026-05-08 17:54 | 46.97837 | 8.54074 | 34468 ft | 457 kts | 180° |
| 2026-05-08 17:54 | 46.94662 | 8.54532 | 33748 ft | 460 kts | 180° |
| 2026-05-08 17:54 | 46.91471 | 8.54991 | 32995 ft | 462 kts | 180° |
| 2026-05-08 17:54 | 46.88270 | 8.55451 | 32257 ft | 462 kts | 180° |
| 2026-05-08 17:55 | 46.85104 | 8.55905 | 31550 ft | 463 kts | 180° |
| 2026-05-08 17:55 | 46.81887 | 8.56367 | 30791 ft | 464 kts | 180° |
| 2026-05-08 17:55 | 46.78682 | 8.56810 | 30038 ft | 464 kts | 180° |
| 2026-05-08 17:55 | 46.75449 | 8.57270 | 29245 ft | 465 kts | 178° |
| 2026-05-08 17:56 | 46.72247 | 8.57748 | 28657 ft | 459 kts | 179° |
| 2026-05-08 17:56 | 46.69078 | 8.58207 | 28073 ft | 454 kts | 178° |
| 2026-05-08 17:56 | 46.65956 | 8.58658 | 27512 ft | 447 kts | 178° |
| 2026-05-08 17:56 | 46.62885 | 8.59092 | 26945 ft | 442 kts | 178° |
| 2026-05-08 17:57 | 46.59873 | 8.59519 | 26416 ft | 439 kts | 178° |
| 2026-05-08 17:57 | 46.56841 | 8.59946 | 25847 ft | 436 kts | 178° |
| 2026-05-08 17:57 | 46.53839 | 8.60367 | 25311 ft | 432 kts | 178° |
| 2026-05-08 17:57 | 46.50857 | 8.60786 | 24757 ft | 428 kts | 178° |
| 2026-05-08 17:58 | 46.47899 | 8.61201 | 24209 ft | 424 kts | 177° |
| 2026-05-08 17:58 | 46.44981 | 8.61608 | 23667 ft | 419 kts | 177° |
| 2026-05-08 17:58 | 46.42089 | 8.62014 | 23061 ft | 415 kts | 177° |
| 2026-05-08 17:58 | 46.39228 | 8.62419 | 22454 ft | 411 kts | 177° |
| 2026-05-08 17:59 | 46.36393 | 8.62823 | 21920 ft | 406 kts | 176° |
| 2026-05-08 17:59 | 46.33593 | 8.63223 | 21372 ft | 402 kts | 176° |
| 2026-05-08 17:59 | 46.30824 | 8.63617 | 20833 ft | 398 kts | 176° |
| 2026-05-08 17:59 | 46.28073 | 8.64006 | 20295 ft | 395 kts | 176° |
| 2026-05-08 18:00 | 46.25344 | 8.64392 | 19772 ft | 392 kts | 176° |
| 2026-05-08 18:00 | 46.19989 | 8.65144 | 18727 ft | 387 kts | 176° |
| 2026-05-08 18:00 | 46.17317 | 8.65522 | 18188 ft | 384 kts | 176° |
| 2026-05-08 18:01 | 46.14660 | 8.65902 | 17607 ft | 382 kts | 176° |
| 2026-05-08 18:01 | 46.12026 | 8.66270 | 17072 ft | 379 kts | 176° |
| 2026-05-08 18:01 | 46.09405 | 8.66279 | 16541 ft | 374 kts | 187° |
| 2026-05-08 18:01 | 46.06856 | 8.65668 | 16039 ft | 370 kts | 192° |
| 2026-05-08 18:02 | 46.04338 | 8.64956 | 15517 ft | 368 kts | 192° |
| 2026-05-08 18:02 | 46.02682 | 8.64485 | 15352 ft | 362 kts | 192° |
| 2026-05-08 18:02 | 45.99452 | 8.63584 | 15139 ft | 346 kts | 192° |
| 2026-05-08 18:02 | 45.97118 | 8.62950 | 14998 ft | 336 kts | 192° |
| 2026-05-08 18:03 | 45.94849 | 8.62344 | 14857 ft | 326 kts | 192° |
| 2026-05-08 18:03 | 45.92651 | 8.61760 | 14718 ft | 317 kts | 192° |
| 2026-05-08 18:03 | 45.90485 | 8.61561 | 14560 ft | 311 kts | 171° |
| 2026-05-08 18:03 | 45.88448 | 8.62582 | 14298 ft | 314 kts | 149° |
| 2026-05-08 18:04 | 45.86701 | 8.64441 | 14017 ft | 312 kts | 142° |
| 2026-05-08 18:04 | 45.85045 | 8.66386 | 13688 ft | 311 kts | 141° |
| 2026-05-08 18:04 | 45.83373 | 8.68366 | 13320 ft | 310 kts | 141° |
| 2026-05-08 18:04 | 45.81705 | 8.70321 | 12980 ft | 308 kts | 141° |
| 2026-05-08 18:05 | 45.80041 | 8.72248 | 12653 ft | 306 kts | 142° |
| 2026-05-08 18:05 | 45.78395 | 8.74145 | 12372 ft | 302 kts | 142° |
| 2026-05-08 18:05 | 45.76755 | 8.76028 | 12035 ft | 301 kts | 142° |
| 2026-05-08 18:05 | 45.75004 | 8.77707 | 11525 ft | 305 kts | 151° |
| 2026-05-08 18:06 | 45.73141 | 8.79118 | 11008 ft | 301 kts | 153° |
| 2026-05-08 18:06 | 45.71282 | 8.80470 | 10515 ft | 297 kts | 153° |
| 2026-05-08 18:06 | 45.69451 | 8.81820 | 10013 ft | 294 kts | 153° |
| 2026-05-08 18:06 | 45.67650 | 8.83178 | 9525 ft | 289 kts | 152° |
| 2026-05-08 18:07 | 45.65899 | 8.84517 | 9123 ft | 283 kts | 152° |
| 2026-05-08 18:07 | 45.64177 | 8.85836 | 8672 ft | 278 kts | 152° |
| 2026-05-08 18:07 | 45.62541 | 8.87088 | 8558 ft | 262 kts | 152° |
| 2026-05-08 18:07 | 45.60903 | 8.88041 | 8423 ft | 248 kts | 168° |
| 2026-05-08 18:08 | 45.59219 | 8.88454 | 8165 ft | 242 kts | 170° |
| 2026-05-08 18:08 | 45.57575 | 8.88865 | 7722 ft | 238 kts | 170° |
| 2026-05-08 18:08 | 45.55975 | 8.89284 | 7474 ft | 225 kts | 169° |
| 2026-05-08 18:08 | 45.54498 | 8.89679 | 7303 ft | 209 kts | 169° |
| 2026-05-08 18:09 | 45.53071 | 8.90061 | 6790 ft | 208 kts | 170° |
| 2026-05-08 18:09 | 45.51640 | 8.89894 | 6204 ft | 210 kts | 204° |
| 2026-05-08 18:09 | 45.50576 | 8.88508 | 5665 ft | 211 kts | 241° |
| 2026-05-08 18:09 | 45.50255 | 8.86509 | 5164 ft | 210 kts | 275° |
| 2026-05-08 18:10 | 45.50744 | 8.84555 | 4679 ft | 211 kts | 298° |
| 2026-05-08 18:10 | 45.51439 | 8.82754 | 4234 ft | 207 kts | 299° |
| 2026-05-08 18:10 | 45.52119 | 8.81029 | 3973 ft | 192 kts | 299° |
| 2026-05-08 18:10 | 45.52756 | 8.79419 | 3505 ft | 188 kts | 299° |
| 2026-05-08 18:11 | 45.53402 | 8.77790 | 2954 ft | 188 kts | 299° |
| 2026-05-08 18:11 | 45.54102 | 8.76227 | 2418 ft | 187 kts | 315° |
| 2026-05-08 18:11 | 45.55224 | 8.75525 | 2030 ft | 176 kts | 351° |
| 2026-05-08 18:11 | 45.56386 | 8.75199 | 1739 ft | 163 kts | 347° |
| 2026-05-08 18:12 | 45.57477 | 8.74881 | 1561 ft | 158 kts | 348° |
| 2026-05-08 18:12 | 45.58539 | 8.74585 | 1343 ft | 153 kts | 349° |
| 2026-05-08 18:12 | 45.59564 | 8.74301 | 1146 ft | 147 kts | 349° |
| 2026-05-08 18:12 | 45.60572 | 8.74032 | 985 ft | 147 kts | 349° |
| 2026-05-08 18:13 | 45.61571 | 8.73751 | 829 ft | 147 kts | 349° |
| 2026-05-08 18:13 | 45.62539 | 8.73482 | 741 ft | 129 kts | 348° |
| 2026-05-08 18:13 | 45.63219 | 8.73294 | 738 ft | 77 kts | 349° |
| 2026-05-08 18:13 | 45.63624 | 8.73159 | 741 ft | 43 kts | 334° |
| 2026-05-08 18:14 | 45.63768 | 8.72996 | 739 ft | 15 kts | 314° |
| 2026-05-08 18:14 | 45.63830 | 8.72882 | 740 ft | 14 kts | 304° |
| 2026-05-08 18:14 | 45.63886 | 8.72765 | 740 ft | 14 kts | 304° |
| 2026-05-08 18:14 | 45.63929 | 8.72675 | 738 ft | 9 kts | 304° |
| 2026-05-08 18:15 | 45.63954 | 8.72589 | 740 ft | 11 kts | 274° |
| 2026-05-08 18:15 | 45.63941 | 8.72439 | 739 ft | 19 kts | 260° |
| 2026-05-08 18:15 | 45.63914 | 8.72260 | 740 ft | 18 kts | 262° |
| 2026-05-08 18:15 | 45.63906 | 8.72167 | 737 ft | 8 kts | 268° |
| 2026-05-08 18:16 | 45.63907 | 8.71973 | 738 ft | 22 kts | 266° |
| 2026-05-08 18:16 | 45.63833 | 8.71822 | 740 ft | 20 kts | 189° |
| 2026-05-08 18:16 | 45.63700 | 8.71852 | 740 ft | 19 kts | 169° |
| 2026-05-08 18:16 | 45.63574 | 8.71887 | 740 ft | 17 kts | 169° |
| 2026-05-08 18:17 | 45.63469 | 8.71915 | 740 ft | 15 kts | 169° |
| 2026-05-08 18:17 | 45.63370 | 8.71942 | 740 ft | 14 kts | 169° |
| 2026-05-08 18:17 | 45.63303 | 8.71865 | 740 ft | 14 kts | 254° |
| 2026-05-08 18:17 | 45.63286 | 8.71732 | 738 ft | 14 kts | 260° |
| 2026-05-08 18:18 | 45.63213 | 8.71674 | 740 ft | 15 kts | 170° |
| 2026-05-08 18:18 | 45.63098 | 8.71706 | 740 ft | 19 kts | 168° |
| 2026-05-08 18:18 | 45.62971 | 8.71741 | 740 ft | 20 kts | 169° |
| 2026-05-08 18:19 | 45.62953 | 8.71746 | 740 ft | 20 kts | 169° |
| 2026-05-08 18:19 | 45.62843 | 8.71787 | 739 ft | 6 kts | 126° |
| 2026-05-08 18:19 | 45.62847 | 8.71845 | 740 ft | 7 kts | 77° |
| 2026-05-08 18:20 | 45.62853 | 8.71883 | 740 ft | 0 kts | 78° |